sensor_id;sensor_type;location;lat;lon;timestamp;temperature;humidity
12622;DHT22;6376;48.182;-1.644;2023-02-11T00:01:25;9.80;75.40
12622;DHT22;6376;48.182;-1.644;2023-02-11T00:03:51;9.80;75.40
12622;DHT22;6376;48.182;-1.644;2023-02-11T00:06:17;9.80;75.40
12622;DHT22;6376;48.182;-1.644;2023-02-11T00:08:43;9.80;75.40
12622;DHT22;6376;48.182;-1.644;2023-02-11T00:11:12;9.80;75.50
12622;DHT22;6376;48.182;-1.644;2023-02-11T00:13:39;9.80;75.50
12622;DHT22;6376;48.182;-1.644;2023-02-11T00:16:13;9.80;75.50
12622;DHT22;6376;48.182;-1.644;2023-02-11T00:18:39;9.80;75.50
12622;DHT22;6376;48.182;-1.644;2023-02-11T00:21:15;9.80;75.50
12622;DHT22;6376;48.182;-1.644;2023-02-11T00:23:41;9.80;75.50
12622;DHT22;6376;48.182;-1.644;2023-02-11T00:26:13;9.70;75.40
12622;DHT22;6376;48.182;-1.644;2023-02-11T00:28:40;9.70;75.50
12622;DHT22;6376;48.182;-1.644;2023-02-11T00:31:06;9.70;75.50
12622;DHT22;6376;48.182;-1.644;2023-02-11T00:33:31;9.70;75.60
12622;DHT22;6376;48.182;-1.644;2023-02-11T00:35:57;9.70;75.50
12622;DHT22;6376;48.182;-1.644;2023-02-11T00:38:23;9.70;75.50
12622;DHT22;6376;48.182;-1.644;2023-02-11T00:40:49;9.70;75.50
12622;DHT22;6376;48.182;-1.644;2023-02-11T00:43:14;9.70;76.30
12622;DHT22;6376;48.182;-1.644;2023-02-11T00:45:40;9.70;75.60
12622;DHT22;6376;48.182;-1.644;2023-02-11T00:48:05;9.70;75.50
12622;DHT22;6376;48.182;-1.644;2023-02-11T00:50:31;9.70;75.60
12622;DHT22;6376;48.182;-1.644;2023-02-11T00:52:57;9.70;75.60
12622;DHT22;6376;48.182;-1.644;2023-02-11T00:55:22;9.70;75.60
12622;DHT22;6376;48.182;-1.644;2023-02-11T00:57:48;9.70;75.70
12622;DHT22;6376;48.182;-1.644;2023-02-11T01:00:14;9.70;75.70
12622;DHT22;6376;48.182;-1.644;2023-02-11T01:02:40;9.70;75.70
12622;DHT22;6376;48.182;-1.644;2023-02-11T01:05:06;9.70;75.60
12622;DHT22;6376;48.182;-1.644;2023-02-11T01:07:31;9.70;75.50
12622;DHT22;6376;48.182;-1.644;2023-02-11T01:09:57;9.70;75.80
12622;DHT22;6376;48.182;-1.644;2023-02-11T01:12:23;9.60;75.70
12622;DHT22;6376;48.182;-1.644;2023-02-11T01:14:49;9.60;75.70
12622;DHT22;6376;48.182;-1.644;2023-02-11T01:17:14;9.60;75.70
12622;DHT22;6376;48.182;-1.644;2023-02-11T01:19:40;9.60;75.70
12622;DHT22;6376;48.182;-1.644;2023-02-11T01:22:06;9.60;75.70
12622;DHT22;6376;48.182;-1.644;2023-02-11T01:24:32;9.60;75.70
12622;DHT22;6376;48.182;-1.644;2023-02-11T01:26:57;9.60;75.70
12622;DHT22;6376;48.182;-1.644;2023-02-11T01:29:23;9.60;75.70
12622;DHT22;6376;48.182;-1.644;2023-02-11T01:31:49;9.60;75.80
12622;DHT22;6376;48.182;-1.644;2023-02-11T01:34:15;9.60;75.70
12622;DHT22;6376;48.182;-1.644;2023-02-11T01:36:41;9.60;75.70
12622;DHT22;6376;48.182;-1.644;2023-02-11T01:39:07;9.60;75.80
12622;DHT22;6376;48.182;-1.644;2023-02-11T01:41:33;9.60;75.80
12622;DHT22;6376;48.182;-1.644;2023-02-11T01:44:27;9.60;75.80
12622;DHT22;6376;48.182;-1.644;2023-02-11T01:46:53;9.60;75.80
12622;DHT22;6376;48.182;-1.644;2023-02-11T01:49:28;9.60;75.80
12622;DHT22;6376;48.182;-1.644;2023-02-11T01:52:15;9.60;75.80
12622;DHT22;6376;48.182;-1.644;2023-02-11T01:54:46;9.50;75.80
12622;DHT22;6376;48.182;-1.644;2023-02-11T01:57:34;9.50;75.80
12622;DHT22;6376;48.182;-1.644;2023-02-11T02:00:35;9.60;75.90
12622;DHT22;6376;48.182;-1.644;2023-02-11T02:03:07;9.50;75.80
12622;DHT22;6376;48.182;-1.644;2023-02-11T02:08:17;9.50;75.80
12622;DHT22;6376;48.182;-1.644;2023-02-11T02:10:46;9.50;75.80
12622;DHT22;6376;48.182;-1.644;2023-02-11T02:13:13;9.50;75.80
12622;DHT22;6376;48.182;-1.644;2023-02-11T02:15:43;9.50;75.80
12622;DHT22;6376;48.182;-1.644;2023-02-11T02:23:37;9.50;75.70
12622;DHT22;6376;48.182;-1.644;2023-02-11T02:40:32;9.40;75.80
12622;DHT22;6376;48.182;-1.644;2023-02-11T02:43:00;9.50;75.90
12622;DHT22;6376;48.182;-1.644;2023-02-11T02:45:27;9.40;75.90
12622;DHT22;6376;48.182;-1.644;2023-02-11T02:47:53;9.40;75.80
12622;DHT22;6376;48.182;-1.644;2023-02-11T02:50:26;9.40;75.70
12622;DHT22;6376;48.182;-1.644;2023-02-11T02:58:20;9.40;75.80
12622;DHT22;6376;48.182;-1.644;2023-02-11T03:00:59;9.40;75.80
12622;DHT22;6376;48.182;-1.644;2023-02-11T03:03:42;9.40;75.90
12622;DHT22;6376;48.182;-1.644;2023-02-11T03:06:15;9.40;75.80
12622;DHT22;6376;48.182;-1.644;2023-02-11T03:08:52;9.40;75.80
12622;DHT22;6376;48.182;-1.644;2023-02-11T03:11:20;9.40;75.80
12622;DHT22;6376;48.182;-1.644;2023-02-11T03:13:47;9.40;76.00
12622;DHT22;6376;48.182;-1.644;2023-02-11T03:16:26;9.40;76.00
12622;DHT22;6376;48.182;-1.644;2023-02-11T03:18:58;9.40;76.00
12622;DHT22;6376;48.182;-1.644;2023-02-11T03:21:26;9.30;75.90
12622;DHT22;6376;48.182;-1.644;2023-02-11T03:23:54;9.40;76.00
12622;DHT22;6376;48.182;-1.644;2023-02-11T03:26:41;9.30;75.90
12622;DHT22;6376;48.182;-1.644;2023-02-11T03:29:16;9.40;76.00
12622;DHT22;6376;48.182;-1.644;2023-02-11T03:34:41;9.30;76.00
12622;DHT22;6376;48.182;-1.644;2023-02-11T03:37:21;9.30;75.90
12622;DHT22;6376;48.182;-1.644;2023-02-11T03:42:41;9.30;75.90
12622;DHT22;6376;48.182;-1.644;2023-02-11T03:45:11;9.30;75.90
12622;DHT22;6376;48.182;-1.644;2023-02-11T03:47:42;9.30;75.90
12622;DHT22;6376;48.182;-1.644;2023-02-11T03:50:11;9.30;75.90
12622;DHT22;6376;48.182;-1.644;2023-02-11T03:52:39;9.30;75.90
12622;DHT22;6376;48.182;-1.644;2023-02-11T03:55:09;9.30;75.90
12622;DHT22;6376;48.182;-1.644;2023-02-11T03:57:36;9.30;75.90
12622;DHT22;6376;48.182;-1.644;2023-02-11T04:00:03;9.30;75.90
12622;DHT22;6376;48.182;-1.644;2023-02-11T04:02:34;9.30;75.90
12622;DHT22;6376;48.182;-1.644;2023-02-11T04:05:00;9.20;75.80
12622;DHT22;6376;48.182;-1.644;2023-02-11T04:07:26;9.30;76.10
12622;DHT22;6376;48.182;-1.644;2023-02-11T04:09:52;9.30;76.00
12622;DHT22;6376;48.182;-1.644;2023-02-11T04:12:18;9.30;76.10
12622;DHT22;6376;48.182;-1.644;2023-02-11T04:14:44;9.30;75.90
12622;DHT22;6376;48.182;-1.644;2023-02-11T04:17:10;9.20;75.90
12622;DHT22;6376;48.182;-1.644;2023-02-11T04:19:37;9.20;75.90
12622;DHT22;6376;48.182;-1.644;2023-02-11T04:22:03;9.30;76.00
12622;DHT22;6376;48.182;-1.644;2023-02-11T04:24:28;9.20;75.90
12622;DHT22;6376;48.182;-1.644;2023-02-11T04:26:54;9.20;75.90
12622;DHT22;6376;48.182;-1.644;2023-02-11T04:29:20;9.20;76.00
12622;DHT22;6376;48.182;-1.644;2023-02-11T04:31:46;9.20;76.10
12622;DHT22;6376;48.182;-1.644;2023-02-11T04:34:13;9.20;76.10
12622;DHT22;6376;48.182;-1.644;2023-02-11T04:36:39;9.20;76.00
12622;DHT22;6376;48.182;-1.644;2023-02-11T04:39:04;9.20;76.00
12622;DHT22;6376;48.182;-1.644;2023-02-11T04:41:30;9.20;76.10
12622;DHT22;6376;48.182;-1.644;2023-02-11T04:43:56;9.20;76.10
12622;DHT22;6376;48.182;-1.644;2023-02-11T04:46:21;9.20;76.10
12622;DHT22;6376;48.182;-1.644;2023-02-11T04:48:47;9.20;76.10
12622;DHT22;6376;48.182;-1.644;2023-02-11T04:51:12;9.20;76.10
12622;DHT22;6376;48.182;-1.644;2023-02-11T04:53:38;9.20;76.10
12622;DHT22;6376;48.182;-1.644;2023-02-11T04:56:04;9.20;76.20
12622;DHT22;6376;48.182;-1.644;2023-02-11T04:58:30;9.20;76.20
12622;DHT22;6376;48.182;-1.644;2023-02-11T05:00:55;9.20;76.20
12622;DHT22;6376;48.182;-1.644;2023-02-11T05:03:29;9.10;76.20
12622;DHT22;6376;48.182;-1.644;2023-02-11T05:05:54;9.20;76.20
12622;DHT22;6376;48.182;-1.644;2023-02-11T05:08:20;9.20;76.20
12622;DHT22;6376;48.182;-1.644;2023-02-11T05:10:46;9.20;76.20
12622;DHT22;6376;48.182;-1.644;2023-02-11T05:13:12;9.20;76.30
12622;DHT22;6376;48.182;-1.644;2023-02-11T05:15:38;9.10;76.20
12622;DHT22;6376;48.182;-1.644;2023-02-11T05:18:03;9.10;76.20
12622;DHT22;6376;48.182;-1.644;2023-02-11T05:20:29;9.10;76.20
12622;DHT22;6376;48.182;-1.644;2023-02-11T05:22:54;9.10;76.30
12622;DHT22;6376;48.182;-1.644;2023-02-11T05:25:20;9.10;76.30
12622;DHT22;6376;48.182;-1.644;2023-02-11T05:27:46;9.10;76.30
12622;DHT22;6376;48.182;-1.644;2023-02-11T05:30:11;9.10;76.30
12622;DHT22;6376;48.182;-1.644;2023-02-11T05:32:37;9.20;76.30
12622;DHT22;6376;48.182;-1.644;2023-02-11T05:35:03;9.10;76.30
12622;DHT22;6376;48.182;-1.644;2023-02-11T05:37:29;9.10;76.30
12622;DHT22;6376;48.182;-1.644;2023-02-11T05:39:54;9.10;76.30
12622;DHT22;6376;48.182;-1.644;2023-02-11T05:42:20;9.10;76.40
12622;DHT22;6376;48.182;-1.644;2023-02-11T05:44:46;9.10;76.30
12622;DHT22;6376;48.182;-1.644;2023-02-11T05:47:11;9.10;76.50
12622;DHT22;6376;48.182;-1.644;2023-02-11T05:49:37;9.10;76.40
12622;DHT22;6376;48.182;-1.644;2023-02-11T05:52:03;9.10;76.40
12622;DHT22;6376;48.182;-1.644;2023-02-11T05:54:29;9.10;76.40
12622;DHT22;6376;48.182;-1.644;2023-02-11T05:56:54;9.10;76.40
12622;DHT22;6376;48.182;-1.644;2023-02-11T05:59:20;9.10;76.40
12622;DHT22;6376;48.182;-1.644;2023-02-11T06:01:46;9.10;76.40
12622;DHT22;6376;48.182;-1.644;2023-02-11T06:04:11;9.10;76.40
12622;DHT22;6376;48.182;-1.644;2023-02-11T06:06:37;9.10;76.50
12622;DHT22;6376;48.182;-1.644;2023-02-11T06:09:03;9.10;76.50
12622;DHT22;6376;48.182;-1.644;2023-02-11T06:11:28;9.00;76.40
12622;DHT22;6376;48.182;-1.644;2023-02-11T06:13:54;9.10;76.50
12622;DHT22;6376;48.182;-1.644;2023-02-11T06:16:20;9.10;76.50
12622;DHT22;6376;48.182;-1.644;2023-02-11T06:18:45;9.10;76.50
12622;DHT22;6376;48.182;-1.644;2023-02-11T06:21:11;9.10;76.50
12622;DHT22;6376;48.182;-1.644;2023-02-11T06:23:37;9.10;76.50
12622;DHT22;6376;48.182;-1.644;2023-02-11T06:26:04;9.10;76.50
12622;DHT22;6376;48.182;-1.644;2023-02-11T06:28:31;9.00;77.20
12622;DHT22;6376;48.182;-1.644;2023-02-11T06:30:57;9.00;76.50
12622;DHT22;6376;48.182;-1.644;2023-02-11T06:33:23;9.00;76.50
12622;DHT22;6376;48.182;-1.644;2023-02-11T06:35:49;9.00;76.50
12622;DHT22;6376;48.182;-1.644;2023-02-11T06:38:15;9.00;76.50
12622;DHT22;6376;48.182;-1.644;2023-02-11T06:40:46;9.00;76.50
12622;DHT22;6376;48.182;-1.644;2023-02-11T06:43:12;9.00;76.50
12622;DHT22;6376;48.182;-1.644;2023-02-11T06:45:38;9.00;76.50
12622;DHT22;6376;48.182;-1.644;2023-02-11T06:48:03;9.00;76.50
12622;DHT22;6376;48.182;-1.644;2023-02-11T06:50:29;9.00;76.50
12622;DHT22;6376;48.182;-1.644;2023-02-11T06:52:54;9.00;76.50
12622;DHT22;6376;48.182;-1.644;2023-02-11T06:55:20;9.00;76.50
12622;DHT22;6376;48.182;-1.644;2023-02-11T06:57:46;9.00;76.50
12622;DHT22;6376;48.182;-1.644;2023-02-11T07:00:12;9.00;76.50
12622;DHT22;6376;48.182;-1.644;2023-02-11T07:02:38;9.00;76.50
12622;DHT22;6376;48.182;-1.644;2023-02-11T07:05:05;9.00;76.60
12622;DHT22;6376;48.182;-1.644;2023-02-11T07:07:31;9.00;76.50
12622;DHT22;6376;48.182;-1.644;2023-02-11T07:09:57;9.00;76.50
12622;DHT22;6376;48.182;-1.644;2023-02-11T07:12:22;9.00;76.50
12622;DHT22;6376;48.182;-1.644;2023-02-11T07:14:48;8.90;76.50
12622;DHT22;6376;48.182;-1.644;2023-02-11T07:17:14;9.00;76.50
12622;DHT22;6376;48.182;-1.644;2023-02-11T07:19:39;9.00;76.60
12622;DHT22;6376;48.182;-1.644;2023-02-11T07:22:05;8.90;76.50
12622;DHT22;6376;48.182;-1.644;2023-02-11T07:24:31;9.00;76.60
12622;DHT22;6376;48.182;-1.644;2023-02-11T07:26:56;8.90;76.50
12622;DHT22;6376;48.182;-1.644;2023-02-11T07:29:22;8.90;76.50
12622;DHT22;6376;48.182;-1.644;2023-02-11T07:31:47;9.00;76.60
12622;DHT22;6376;48.182;-1.644;2023-02-11T07:34:13;9.00;76.60
12622;DHT22;6376;48.182;-1.644;2023-02-11T07:36:39;9.00;76.60
12622;DHT22;6376;48.182;-1.644;2023-02-11T07:39:05;9.00;76.60
12622;DHT22;6376;48.182;-1.644;2023-02-11T07:41:30;8.90;76.50
12622;DHT22;6376;48.182;-1.644;2023-02-11T07:43:56;8.90;76.60
12622;DHT22;6376;48.182;-1.644;2023-02-11T07:46:26;8.90;76.50
12622;DHT22;6376;48.182;-1.644;2023-02-11T07:48:52;8.90;76.50
12622;DHT22;6376;48.182;-1.644;2023-02-11T07:51:29;8.90;76.50
12622;DHT22;6376;48.182;-1.644;2023-02-11T07:53:57;8.90;76.50
12622;DHT22;6376;48.182;-1.644;2023-02-11T07:56:23;8.90;76.60
12622;DHT22;6376;48.182;-1.644;2023-02-11T07:58:49;8.90;76.60
12622;DHT22;6376;48.182;-1.644;2023-02-11T08:01:21;8.90;76.60
12622;DHT22;6376;48.182;-1.644;2023-02-11T08:03:49;8.90;76.60
12622;DHT22;6376;48.182;-1.644;2023-02-11T08:06:17;8.90;76.50
12622;DHT22;6376;48.182;-1.644;2023-02-11T08:08:45;8.90;76.50
12622;DHT22;6376;48.182;-1.644;2023-02-11T08:11:13;8.90;76.50
12622;DHT22;6376;48.182;-1.644;2023-02-11T08:13:39;8.90;76.50
12622;DHT22;6376;48.182;-1.644;2023-02-11T08:16:06;9.00;76.60
12622;DHT22;6376;48.182;-1.644;2023-02-11T08:18:33;8.90;76.40
12622;DHT22;6376;48.182;-1.644;2023-02-11T08:21:07;8.90;76.40
12622;DHT22;6376;48.182;-1.644;2023-02-11T08:23:36;8.90;76.50
12622;DHT22;6376;48.182;-1.644;2023-02-11T08:26:03;8.90;76.50
12622;DHT22;6376;48.182;-1.644;2023-02-11T08:28:29;8.90;76.50
12622;DHT22;6376;48.182;-1.644;2023-02-11T08:30:55;9.00;76.50
12622;DHT22;6376;48.182;-1.644;2023-02-11T08:33:20;9.00;76.40
12622;DHT22;6376;48.182;-1.644;2023-02-11T08:35:46;8.90;76.40
12622;DHT22;6376;48.182;-1.644;2023-02-11T08:38:11;9.00;76.40
12622;DHT22;6376;48.182;-1.644;2023-02-11T08:40:37;8.90;76.20
12622;DHT22;6376;48.182;-1.644;2023-02-11T08:43:03;9.00;76.20
12622;DHT22;6376;48.182;-1.644;2023-02-11T08:45:28;9.00;76.20
12622;DHT22;6376;48.182;-1.644;2023-02-11T08:47:54;9.00;76.30
12622;DHT22;6376;48.182;-1.644;2023-02-11T08:50:20;9.00;76.40
12622;DHT22;6376;48.182;-1.644;2023-02-11T08:52:45;8.90;76.30
12622;DHT22;6376;48.182;-1.644;2023-02-11T08:55:11;9.00;76.30
12622;DHT22;6376;48.182;-1.644;2023-02-11T08:57:36;9.00;76.30
12622;DHT22;6376;48.182;-1.644;2023-02-11T09:00:03;9.00;76.30
12622;DHT22;6376;48.182;-1.644;2023-02-11T09:02:29;9.00;76.20
12622;DHT22;6376;48.182;-1.644;2023-02-11T09:04:55;9.00;76.20
12622;DHT22;6376;48.182;-1.644;2023-02-11T09:07:20;9.00;76.20
12622;DHT22;6376;48.182;-1.644;2023-02-11T09:09:46;9.00;76.20
12622;DHT22;6376;48.182;-1.644;2023-02-11T09:12:11;9.00;76.20
12622;DHT22;6376;48.182;-1.644;2023-02-11T09:14:37;9.00;76.10
12622;DHT22;6376;48.182;-1.644;2023-02-11T09:17:03;9.00;76.10
12622;DHT22;6376;48.182;-1.644;2023-02-11T09:19:28;9.10;76.20
12622;DHT22;6376;48.182;-1.644;2023-02-11T09:21:54;9.00;76.10
12622;DHT22;6376;48.182;-1.644;2023-02-11T09:24:20;9.00;76.00
12622;DHT22;6376;48.182;-1.644;2023-02-11T09:26:45;9.10;76.10
12622;DHT22;6376;48.182;-1.644;2023-02-11T09:29:11;9.10;76.10
12622;DHT22;6376;48.182;-1.644;2023-02-11T09:31:37;9.10;76.00
12622;DHT22;6376;48.182;-1.644;2023-02-11T09:34:04;9.10;75.90
12622;DHT22;6376;48.182;-1.644;2023-02-11T09:36:33;9.10;75.90
12622;DHT22;6376;48.182;-1.644;2023-02-11T09:39:01;9.10;75.90
12622;DHT22;6376;48.182;-1.644;2023-02-11T09:43:57;9.20;75.90
12622;DHT22;6376;48.182;-1.644;2023-02-11T09:46:26;9.10;75.80
12622;DHT22;6376;48.182;-1.644;2023-02-11T09:48:55;9.20;75.90
12622;DHT22;6376;48.182;-1.644;2023-02-11T09:51:50;9.20;75.90
12622;DHT22;6376;48.182;-1.644;2023-02-11T09:57:15;9.10;75.90
12622;DHT22;6376;48.182;-1.644;2023-02-11T09:59:41;9.20;76.00
12622;DHT22;6376;48.182;-1.644;2023-02-11T10:02:38;9.20;75.90
12622;DHT22;6376;48.182;-1.644;2023-02-11T10:08:19;9.20;75.80
12622;DHT22;6376;48.182;-1.644;2023-02-11T10:10:50;9.20;75.70
12622;DHT22;6376;48.182;-1.644;2023-02-11T10:21:26;9.30;75.90
12622;DHT22;6376;48.182;-1.644;2023-02-11T10:23:58;9.30;75.80
12622;DHT22;6376;48.182;-1.644;2023-02-11T10:26:27;9.30;75.80
12622;DHT22;6376;48.182;-1.644;2023-02-11T10:28:59;9.30;75.90
12622;DHT22;6376;48.182;-1.644;2023-02-11T10:31:35;9.30;75.80
12622;DHT22;6376;48.182;-1.644;2023-02-11T10:34:04;9.40;75.80
12622;DHT22;6376;48.182;-1.644;2023-02-11T10:36:33;9.40;75.70
12622;DHT22;6376;48.182;-1.644;2023-02-11T10:41:46;9.40;75.60
12622;DHT22;6376;48.182;-1.644;2023-02-11T10:46:49;9.40;75.70
12622;DHT22;6376;48.182;-1.644;2023-02-11T10:49:36;9.50;75.80
12622;DHT22;6376;48.182;-1.644;2023-02-11T10:55:04;9.70;75.20
12622;DHT22;6376;48.182;-1.644;2023-02-11T10:57:34;9.70;74.80
12622;DHT22;6376;48.182;-1.644;2023-02-11T11:00:07;9.90;74.40
12622;DHT22;6376;48.182;-1.644;2023-02-11T11:02:43;10.00;73.50
12622;DHT22;6376;48.182;-1.644;2023-02-11T11:05:19;10.10;73.20
12622;DHT22;6376;48.182;-1.644;2023-02-11T11:07:53;10.20;73.10
12622;DHT22;6376;48.182;-1.644;2023-02-11T11:10:43;10.30;73.40
12622;DHT22;6376;48.182;-1.644;2023-02-11T11:13:30;10.50;72.10
12622;DHT22;6376;48.182;-1.644;2023-02-11T11:16:17;10.50;71.90
12622;DHT22;6376;48.182;-1.644;2023-02-11T11:18:46;10.60;71.60
12622;DHT22;6376;48.182;-1.644;2023-02-11T11:21:25;10.70;71.30
12622;DHT22;6376;48.182;-1.644;2023-02-11T11:23:55;10.80;71.00
12622;DHT22;6376;48.182;-1.644;2023-02-11T11:26:22;10.90;70.80
12622;DHT22;6376;48.182;-1.644;2023-02-11T11:31:34;11.00;70.40
12622;DHT22;6376;48.182;-1.644;2023-02-11T11:36:47;11.20;69.70
12622;DHT22;6376;48.182;-1.644;2023-02-11T11:39:26;11.30;70.00
12622;DHT22;6376;48.182;-1.644;2023-02-11T11:41:57;11.30;69.70
12622;DHT22;6376;48.182;-1.644;2023-02-11T11:44:32;11.30;69.50
12622;DHT22;6376;48.182;-1.644;2023-02-11T11:52:19;11.10;70.20
12622;DHT22;6376;48.182;-1.644;2023-02-11T11:54:55;11.00;70.60
12622;DHT22;6376;48.182;-1.644;2023-02-11T11:57:26;10.90;71.00
12622;DHT22;6376;48.182;-1.644;2023-02-11T11:59:54;10.80;71.30
12622;DHT22;6376;48.182;-1.644;2023-02-11T12:11:11;10.70;72.40
12622;DHT22;6376;48.182;-1.644;2023-02-11T12:22:48;10.90;72.40
12622;DHT22;6376;48.182;-1.644;2023-02-11T12:25:28;11.10;71.90
12622;DHT22;6376;48.182;-1.644;2023-02-11T12:28:30;11.30;71.00
12622;DHT22;6376;48.182;-1.644;2023-02-11T12:39:16;11.70;71.20
12622;DHT22;6376;48.182;-1.644;2023-02-11T12:47:29;11.90;70.80
12622;DHT22;6376;48.182;-1.644;2023-02-11T12:53:07;12.00;70.80
12622;DHT22;6376;48.182;-1.644;2023-02-11T12:55:39;12.10;70.90
12622;DHT22;6376;48.182;-1.644;2023-02-11T12:58:14;12.10;71.00
12622;DHT22;6376;48.182;-1.644;2023-02-11T13:00:51;12.20;71.20
12622;DHT22;6376;48.182;-1.644;2023-02-11T13:06:19;12.30;71.30
12622;DHT22;6376;48.182;-1.644;2023-02-11T13:08:49;12.30;71.30
12622;DHT22;6376;48.182;-1.644;2023-02-11T13:11:28;12.40;71.40
12622;DHT22;6376;48.182;-1.644;2023-02-11T13:14:15;12.40;71.10
12622;DHT22;6376;48.182;-1.644;2023-02-11T13:16:47;12.40;70.90
12622;DHT22;6376;48.182;-1.644;2023-02-11T13:19:36;12.50;70.80
12622;DHT22;6376;48.182;-1.644;2023-02-11T13:22:15;12.50;71.00
12622;DHT22;6376;48.182;-1.644;2023-02-11T13:27:43;12.40;71.10
12622;DHT22;6376;48.182;-1.644;2023-02-11T13:30:27;12.50;71.20
12622;DHT22;6376;48.182;-1.644;2023-02-11T13:35:34;12.50;71.50
12622;DHT22;6376;48.182;-1.644;2023-02-11T13:40:41;12.50;71.60
12622;DHT22;6376;48.182;-1.644;2023-02-11T13:43:20;12.60;71.60
12622;DHT22;6376;48.182;-1.644;2023-02-11T13:45:47;12.60;71.70
12622;DHT22;6376;48.182;-1.644;2023-02-11T13:48:55;12.60;71.70
12622;DHT22;6376;48.182;-1.644;2023-02-11T13:51:17;12.60;71.70
12622;DHT22;6376;48.182;-1.644;2023-02-11T13:58:59;12.70;71.60
12622;DHT22;6376;48.182;-1.644;2023-02-11T14:04:32;12.70;71.50
12622;DHT22;6376;48.182;-1.644;2023-02-11T14:07:33;12.80;71.60
12622;DHT22;6376;48.182;-1.644;2023-02-11T14:16:35;12.80;71.60
12622;DHT22;6376;48.182;-1.644;2023-02-11T14:27:08;12.90;71.60
12622;DHT22;6376;48.182;-1.644;2023-02-11T14:42:36;13.00;71.60
12622;DHT22;6376;48.182;-1.644;2023-02-11T14:45:05;13.00;71.60
12622;DHT22;6376;48.182;-1.644;2023-02-11T14:47:40;13.00;71.40
12622;DHT22;6376;48.182;-1.644;2023-02-11T14:50:22;13.00;71.40
12622;DHT22;6376;48.182;-1.644;2023-02-11T14:52:49;13.00;71.30
12622;DHT22;6376;48.182;-1.644;2023-02-11T14:55:38;13.00;71.30
12622;DHT22;6376;48.182;-1.644;2023-02-11T14:58:12;13.10;71.40
12622;DHT22;6376;48.182;-1.644;2023-02-11T15:08:34;13.10;71.60
12622;DHT22;6376;48.182;-1.644;2023-02-11T15:11:02;13.20;71.60
12622;DHT22;6376;48.182;-1.644;2023-02-11T15:13:32;13.20;71.60
12622;DHT22;6376;48.182;-1.644;2023-02-11T15:16:02;13.20;71.50
12622;DHT22;6376;48.182;-1.644;2023-02-11T15:18:40;13.20;71.30
12622;DHT22;6376;48.182;-1.644;2023-02-11T15:21:09;13.20;71.50
12622;DHT22;6376;48.182;-1.644;2023-02-11T15:23:35;13.30;71.60
12622;DHT22;6376;48.182;-1.644;2023-02-11T15:26:02;13.30;71.50
12622;DHT22;6376;48.182;-1.644;2023-02-11T15:28:33;13.30;71.50
12622;DHT22;6376;48.182;-1.644;2023-02-11T15:31:05;13.30;71.50
12622;DHT22;6376;48.182;-1.644;2023-02-11T15:33:36;13.30;71.50
12622;DHT22;6376;48.182;-1.644;2023-02-11T15:36:02;13.30;71.30
12622;DHT22;6376;48.182;-1.644;2023-02-11T15:38:28;13.30;71.40
12622;DHT22;6376;48.182;-1.644;2023-02-11T15:41:00;13.40;71.50
12622;DHT22;6376;48.182;-1.644;2023-02-11T15:43:46;13.40;71.40
12622;DHT22;6376;48.182;-1.644;2023-02-11T15:46:15;13.40;71.30
12622;DHT22;6376;48.182;-1.644;2023-02-11T15:48:52;13.40;71.30
12622;DHT22;6376;48.182;-1.644;2023-02-11T15:51:34;13.40;71.30
12622;DHT22;6376;48.182;-1.644;2023-02-11T15:54:08;13.40;71.30
12622;DHT22;6376;48.182;-1.644;2023-02-11T15:56:46;13.40;71.30
12622;DHT22;6376;48.182;-1.644;2023-02-11T15:59:19;13.50;71.30
12622;DHT22;6376;48.182;-1.644;2023-02-11T16:01:47;13.50;71.30
12622;DHT22;6376;48.182;-1.644;2023-02-11T16:04:21;13.50;71.30
12622;DHT22;6376;48.182;-1.644;2023-02-11T16:06:48;13.50;71.20
12622;DHT22;6376;48.182;-1.644;2023-02-11T16:19:26;13.30;71.70
12622;DHT22;6376;48.182;-1.644;2023-02-11T16:21:54;13.30;71.90
12622;DHT22;6376;48.182;-1.644;2023-02-11T16:24:30;13.30;71.70
12622;DHT22;6376;48.182;-1.644;2023-02-11T16:26:59;13.20;71.50
12622;DHT22;6376;48.182;-1.644;2023-02-11T16:29:28;13.20;72.40
12622;DHT22;6376;48.182;-1.644;2023-02-11T16:32:17;13.10;71.60
12622;DHT22;6376;48.182;-1.644;2023-02-11T16:34:43;13.10;72.30
12622;DHT22;6376;48.182;-1.644;2023-02-11T16:37:09;13.00;71.60
12622;DHT22;6376;48.182;-1.644;2023-02-11T16:39:35;13.00;71.80
12622;DHT22;6376;48.182;-1.644;2023-02-11T16:42:01;12.90;72.00
12622;DHT22;6376;48.182;-1.644;2023-02-11T16:44:28;12.90;72.30
12622;DHT22;6376;48.182;-1.644;2023-02-11T16:46:54;12.80;72.50
12622;DHT22;6376;48.182;-1.644;2023-02-11T16:49:29;12.80;72.40
12622;DHT22;6376;48.182;-1.644;2023-02-11T16:51:58;12.80;72.50
12622;DHT22;6376;48.182;-1.644;2023-02-11T16:54:26;12.70;72.60
12622;DHT22;6376;48.182;-1.644;2023-02-11T16:56:53;12.60;72.60
12622;DHT22;6376;48.182;-1.644;2023-02-11T16:59:19;12.60;72.60
12622;DHT22;6376;48.182;-1.644;2023-02-11T17:01:45;12.60;72.90
12622;DHT22;6376;48.182;-1.644;2023-02-11T17:04:22;12.50;72.90
12622;DHT22;6376;48.182;-1.644;2023-02-11T17:06:48;12.50;73.00
12622;DHT22;6376;48.182;-1.644;2023-02-11T17:09:26;12.50;73.10
12622;DHT22;6376;48.182;-1.644;2023-02-11T17:11:51;12.40;73.00
12622;DHT22;6376;48.182;-1.644;2023-02-11T17:14:18;12.40;73.10
12622;DHT22;6376;48.182;-1.644;2023-02-11T17:16:46;12.40;73.20
12622;DHT22;6376;48.182;-1.644;2023-02-11T17:19:14;12.30;73.10
12622;DHT22;6376;48.182;-1.644;2023-02-11T17:21:44;12.30;73.30
12622;DHT22;6376;48.182;-1.644;2023-02-11T17:24:11;12.30;73.40
12622;DHT22;6376;48.182;-1.644;2023-02-11T17:26:37;12.20;73.40
12622;DHT22;6376;48.182;-1.644;2023-02-11T17:29:08;12.20;73.60
12622;DHT22;6376;48.182;-1.644;2023-02-11T17:31:34;12.20;73.70
12622;DHT22;6376;48.182;-1.644;2023-02-11T17:34:00;12.20;73.80
12622;DHT22;6376;48.182;-1.644;2023-02-11T17:36:26;12.10;73.70
12622;DHT22;6376;48.182;-1.644;2023-02-11T17:38:53;12.10;73.80
12622;DHT22;6376;48.182;-1.644;2023-02-11T17:41:19;12.10;73.90
12622;DHT22;6376;48.182;-1.644;2023-02-11T17:43:44;12.10;74.00
12622;DHT22;6376;48.182;-1.644;2023-02-11T17:46:10;12.00;74.00
12622;DHT22;6376;48.182;-1.644;2023-02-11T17:48:37;12.00;74.10
12622;DHT22;6376;48.182;-1.644;2023-02-11T17:51:04;12.00;74.10
12622;DHT22;6376;48.182;-1.644;2023-02-11T17:53:30;12.00;74.20
12622;DHT22;6376;48.182;-1.644;2023-02-11T17:55:55;11.90;74.20
12622;DHT22;6376;48.182;-1.644;2023-02-11T17:58:22;11.90;74.30
12622;DHT22;6376;48.182;-1.644;2023-02-11T18:00:48;11.90;74.30
12622;DHT22;6376;48.182;-1.644;2023-02-11T18:03:14;11.90;74.40
12622;DHT22;6376;48.182;-1.644;2023-02-11T18:05:40;11.90;74.50
12622;DHT22;6376;48.182;-1.644;2023-02-11T18:08:06;11.80;74.50
12622;DHT22;6376;48.182;-1.644;2023-02-11T18:10:32;11.80;74.50
12622;DHT22;6376;48.182;-1.644;2023-02-11T18:12:59;11.80;74.60
12622;DHT22;6376;48.182;-1.644;2023-02-11T18:15:24;11.80;74.60
12622;DHT22;6376;48.182;-1.644;2023-02-11T18:17:50;11.80;74.70
12622;DHT22;6376;48.182;-1.644;2023-02-11T18:20:16;11.70;75.50
12622;DHT22;6376;48.182;-1.644;2023-02-11T18:22:42;11.70;74.70
12622;DHT22;6376;48.182;-1.644;2023-02-11T18:25:12;11.70;74.80
12622;DHT22;6376;48.182;-1.644;2023-02-11T18:27:38;11.70;74.90
12622;DHT22;6376;48.182;-1.644;2023-02-11T18:30:05;11.70;74.90
12622;DHT22;6376;48.182;-1.644;2023-02-11T18:32:30;11.60;74.80
12622;DHT22;6376;48.182;-1.644;2023-02-11T18:34:56;11.60;74.90
12622;DHT22;6376;48.182;-1.644;2023-02-11T18:37:22;11.60;74.90
12622;DHT22;6376;48.182;-1.644;2023-02-11T18:39:47;11.60;75.00
12622;DHT22;6376;48.182;-1.644;2023-02-11T18:42:13;11.60;75.10